sensor_id;sensor_type;location;lat;lon;timestamp;temperature;humidity
36214;DHT22;37652;50.400;30.628;2023-03-20T00:01:30;3.50;73.70
36214;DHT22;37652;50.400;30.628;2023-03-20T00:03:31;3.50;73.70
36214;DHT22;37652;50.400;30.628;2023-03-20T00:05:32;3.60;73.90
36214;DHT22;37652;50.400;30.628;2023-03-20T00:07:32;4.40;76.50
36214;DHT22;37652;50.400;30.628;2023-03-20T00:09:33;3.50;74.20
36214;DHT22;37652;50.400;30.628;2023-03-20T00:11:35;3.50;73.80
36214;DHT22;37652;50.400;30.628;2023-03-20T00:13:40;3.80;77.20
36214;DHT22;37652;50.400;30.628;2023-03-20T00:15:42;3.40;74.30
36214;DHT22;37652;50.400;30.628;2023-03-20T00:17:43;3.50;77.20
36214;DHT22;37652;50.400;30.628;2023-03-20T00:19:44;3.40;74.40
36214;DHT22;37652;50.400;30.628;2023-03-20T00:21:45;3.30;74.20
36214;DHT22;37652;50.400;30.628;2023-03-20T00:23:47;3.20;77.20
36214;DHT22;37652;50.400;30.628;2023-03-20T00:25:48;3.00;77.20
36214;DHT22;37652;50.400;30.628;2023-03-20T00:27:49;3.40;74.70
36214;DHT22;37652;50.400;30.628;2023-03-20T00:29:50;3.70;77.80
36214;DHT22;37652;50.400;30.628;2023-03-20T00:31:51;3.50;77.80
36214;DHT22;37652;50.400;30.628;2023-03-20T00:33:54;3.30;77.80
36214;DHT22;37652;50.400;30.628;2023-03-20T00:35:55;3.40;77.30
36214;DHT22;37652;50.400;30.628;2023-03-20T00:37:58;3.00;78.50
36214;DHT22;37652;50.400;30.628;2023-03-20T00:42:02;3.30;78.40
36214;DHT22;37652;50.400;30.628;2023-03-20T00:48:22;3.20;78.80
36214;DHT22;37652;50.400;30.628;2023-03-20T00:50:26;3.60;75.80
36214;DHT22;37652;50.400;30.628;2023-03-20T00:52:28;3.20;79.10
36214;DHT22;37652;50.400;30.628;2023-03-20T00:54:29;3.20;79.20
36214;DHT22;37652;50.400;30.628;2023-03-20T00:56:39;3.20;79.00
36214;DHT22;37652;50.400;30.628;2023-03-20T00:58:41;3.20;79.50
36214;DHT22;37652;50.400;30.628;2023-03-20T01:00:43;2.70;79.00
36214;DHT22;37652;50.400;30.628;2023-03-20T01:02:45;3.10;79.30
36214;DHT22;37652;50.400;30.628;2023-03-20T01:04:47;2.90;79.30
36214;DHT22;37652;50.400;30.628;2023-03-20T01:06:48;3.30;78.60
36214;DHT22;37652;50.400;30.628;2023-03-20T01:08:48;3.40;79.40
36214;DHT22;37652;50.400;30.628;2023-03-20T01:10:55;3.20;79.80
36214;DHT22;37652;50.400;30.628;2023-03-20T01:12:59;3.10;79.30
36214;DHT22;37652;50.400;30.628;2023-03-20T01:15:00;3.10;79.00
36214;DHT22;37652;50.400;30.628;2023-03-20T01:19:02;2.90;79.40
36214;DHT22;37652;50.400;30.628;2023-03-20T01:21:03;3.20;79.50
36214;DHT22;37652;50.400;30.628;2023-03-20T01:23:04;2.90;79.40
36214;DHT22;37652;50.400;30.628;2023-03-20T01:25:06;2.90;76.60
36214;DHT22;37652;50.400;30.628;2023-03-20T01:27:14;2.70;79.30
36214;DHT22;37652;50.400;30.628;2023-03-20T01:29:21;2.60;79.20
36214;DHT22;37652;50.400;30.628;2023-03-20T01:33:23;2.40;79.60
36214;DHT22;37652;50.400;30.628;2023-03-20T01:35:27;3.20;80.00
36214;DHT22;37652;50.400;30.628;2023-03-20T01:39:34;2.80;75.90
36214;DHT22;37652;50.400;30.628;2023-03-20T01:41:36;2.50;79.80
36214;DHT22;37652;50.400;30.628;2023-03-20T01:43:37;3.10;80.50
36214;DHT22;37652;50.400;30.628;2023-03-20T01:45:38;3.10;80.00
36214;DHT22;37652;50.400;30.628;2023-03-20T01:47:43;3.10;79.80
36214;DHT22;37652;50.400;30.628;2023-03-20T01:52:29;2.40;77.60
36214;DHT22;37652;50.400;30.628;2023-03-20T01:54:34;3.00;79.60
36214;DHT22;37652;50.400;30.628;2023-03-20T01:59:07;2.50;79.30
36214;DHT22;37652;50.400;30.628;2023-03-20T02:01:11;3.00;79.60
36214;DHT22;37652;50.400;30.628;2023-03-20T02:03:13;2.60;79.50
36214;DHT22;37652;50.400;30.628;2023-03-20T02:05:18;2.30;79.20
36214;DHT22;37652;50.400;30.628;2023-03-20T02:07:21;3.00;79.80
36214;DHT22;37652;50.400;30.628;2023-03-20T02:09:22;2.70;80.10
36214;DHT22;37652;50.400;30.628;2023-03-20T02:11:23;2.80;80.10
36214;DHT22;37652;50.400;30.628;2023-03-20T02:13:29;2.70;80.00
36214;DHT22;37652;50.400;30.628;2023-03-20T02:15:31;2.40;80.00
36214;DHT22;37652;50.400;30.628;2023-03-20T02:17:32;2.90;80.10
36214;DHT22;37652;50.400;30.628;2023-03-20T02:27:18;2.30;80.30
36214;DHT22;37652;50.400;30.628;2023-03-20T02:50:38;2.10;80.30
36214;DHT22;37652;50.400;30.628;2023-03-20T02:55:09;2.50;81.10
36214;DHT22;37652;50.400;30.628;2023-03-20T03:00:09;2.40;78.60
36214;DHT22;37652;50.400;30.628;2023-03-20T03:02:43;2.60;81.40
36214;DHT22;37652;50.400;30.628;2023-03-20T03:04:59;2.40;81.50
36214;DHT22;37652;50.400;30.628;2023-03-20T03:07:02;2.40;81.60
36214;DHT22;37652;50.400;30.628;2023-03-20T03:11:13;2.30;81.50
36214;DHT22;37652;50.400;30.628;2023-03-20T03:13:17;2.00;78.50
36214;DHT22;37652;50.400;30.628;2023-03-20T03:15:39;1.50;81.20
36214;DHT22;37652;50.400;30.628;2023-03-20T03:17:43;2.10;79.60
36214;DHT22;37652;50.400;30.628;2023-03-20T03:19:49;1.80;82.00
36214;DHT22;37652;50.400;30.628;2023-03-20T03:21:50;1.60;81.90
36214;DHT22;37652;50.400;30.628;2023-03-20T03:23:52;1.60;82.30
36214;DHT22;37652;50.400;30.628;2023-03-20T03:25:54;1.60;82.30
36214;DHT22;37652;50.400;30.628;2023-03-20T03:28:31;1.70;82.20
36214;DHT22;37652;50.400;30.628;2023-03-20T03:30:38;1.90;82.70
36214;DHT22;37652;50.400;30.628;2023-03-20T03:32:49;2.10;82.70
36214;DHT22;37652;50.400;30.628;2023-03-20T03:34:50;1.10;81.60
36214;DHT22;37652;50.400;30.628;2023-03-20T03:41:21;1.20;83.40
36214;DHT22;37652;50.400;30.628;2023-03-20T03:43:31;1.40;83.90
36214;DHT22;37652;50.400;30.628;2023-03-20T03:45:40;1.20;80.60
36214;DHT22;37652;50.400;30.628;2023-03-20T03:47:47;1.70;80.90
36214;DHT22;37652;50.400;30.628;2023-03-20T03:49:57;1.00;83.60
36214;DHT22;37652;50.400;30.628;2023-03-20T03:52:02;1.40;83.90
36214;DHT22;37652;50.400;30.628;2023-03-20T03:56:32;0.90;83.90
36214;DHT22;37652;50.400;30.628;2023-03-20T03:58:41;1.10;84.30
36214;DHT22;37652;50.400;30.628;2023-03-20T04:00:44;0.70;84.30
36214;DHT22;37652;50.400;30.628;2023-03-20T04:02:50;1.40;84.90
36214;DHT22;37652;50.400;30.628;2023-03-20T04:04:52;1.50;83.50
36214;DHT22;37652;50.400;30.628;2023-03-20T04:06:53;1.30;84.50
36214;DHT22;37652;50.400;30.628;2023-03-20T04:08:55;0.80;84.30
36214;DHT22;37652;50.400;30.628;2023-03-20T04:10:55;0.80;81.60
36214;DHT22;37652;50.400;30.628;2023-03-20T04:14:57;1.20;84.40
36214;DHT22;37652;50.400;30.628;2023-03-20T04:16:58;1.50;84.40
36214;DHT22;37652;50.400;30.628;2023-03-20T04:18:58;1.00;82.00
36214;DHT22;37652;50.400;30.628;2023-03-20T04:23:01;1.10;83.20
36214;DHT22;37652;50.400;30.628;2023-03-20T04:25:06;0.90;82.90
36214;DHT22;37652;50.400;30.628;2023-03-20T04:27:07;1.50;84.90
36214;DHT22;37652;50.400;30.628;2023-03-20T04:33:10;1.30;84.90
36214;DHT22;37652;50.400;30.628;2023-03-20T04:35:11;1.30;81.00
36214;DHT22;37652;50.400;30.628;2023-03-20T04:37:12;1.20;84.40
36214;DHT22;37652;50.400;30.628;2023-03-20T04:39:13;1.70;84.80
36214;DHT22;37652;50.400;30.628;2023-03-20T04:41:14;1.30;84.60
36214;DHT22;37652;50.400;30.628;2023-03-20T04:43:15;1.50;84.90
36214;DHT22;37652;50.400;30.628;2023-03-20T04:45:16;1.10;81.30
36214;DHT22;37652;50.400;30.628;2023-03-20T04:47:17;1.80;85.00
36214;DHT22;37652;50.400;30.628;2023-03-20T04:49:17;2.00;85.50
36214;DHT22;37652;50.400;30.628;2023-03-20T04:51:18;1.70;84.80
36214;DHT22;37652;50.400;30.628;2023-03-20T04:53:19;1.50;84.40
36214;DHT22;37652;50.400;30.628;2023-03-20T04:55:20;1.40;84.00
36214;DHT22;37652;50.400;30.628;2023-03-20T04:57:21;1.90;83.70
36214;DHT22;37652;50.400;30.628;2023-03-20T04:59:22;1.90;83.70
36214;DHT22;37652;50.400;30.628;2023-03-20T05:03:24;2.40;83.40
36214;DHT22;37652;50.400;30.628;2023-03-20T05:05:27;1.70;82.80
36214;DHT22;37652;50.400;30.628;2023-03-20T05:07:28;2.30;82.60
36214;DHT22;37652;50.400;30.628;2023-03-20T05:09:29;2.20;83.10
36214;DHT22;37652;50.400;30.628;2023-03-20T05:11:30;2.60;82.90
36214;DHT22;37652;50.400;30.628;2023-03-20T05:15:31;2.30;82.40
36214;DHT22;37652;50.400;30.628;2023-03-20T05:17:32;2.30;81.90
36214;DHT22;37652;50.400;30.628;2023-03-20T05:19:33;2.30;79.80
36214;DHT22;37652;50.400;30.628;2023-03-20T05:21:34;3.70;82.30
36214;DHT22;37652;50.400;30.628;2023-03-20T05:23:35;2.10;81.30
36214;DHT22;37652;50.400;30.628;2023-03-20T05:25:35;2.20;81.20
36214;DHT22;37652;50.400;30.628;2023-03-20T05:27:36;2.60;81.10
36214;DHT22;37652;50.400;30.628;2023-03-20T05:29:37;2.60;81.00
36214;DHT22;37652;50.400;30.628;2023-03-20T05:31:38;2.20;80.40
36214;DHT22;37652;50.400;30.628;2023-03-20T05:33:38;2.60;78.70
36214;DHT22;37652;50.400;30.628;2023-03-20T05:35:39;2.60;78.50
36214;DHT22;37652;50.400;30.628;2023-03-20T05:37:40;2.40;80.20
36214;DHT22;37652;50.400;30.628;2023-03-20T05:39:41;3.10;80.40
36214;DHT22;37652;50.400;30.628;2023-03-20T05:41:42;2.70;78.20
36214;DHT22;37652;50.400;30.628;2023-03-20T05:43:42;3.20;80.30
36214;DHT22;37652;50.400;30.628;2023-03-20T05:45:43;2.80;77.90
36214;DHT22;37652;50.400;30.628;2023-03-20T05:47:44;3.20;80.30
36214;DHT22;37652;50.400;30.628;2023-03-20T05:49:44;2.90;77.70
36214;DHT22;37652;50.400;30.628;2023-03-20T05:51:46;3.30;79.50
36214;DHT22;37652;50.400;30.628;2023-03-20T05:53:46;3.00;76.80
36214;DHT22;37652;50.400;30.628;2023-03-20T05:55:47;3.10;79.40
36214;DHT22;37652;50.400;30.628;2023-03-20T05:57:47;3.40;79.30
36214;DHT22;37652;50.400;30.628;2023-03-20T05:59:48;3.40;79.30
36214;DHT22;37652;50.400;30.628;2023-03-20T06:01:49;3.00;79.00
36214;DHT22;37652;50.400;30.628;2023-03-20T06:03:50;3.20;76.80
36214;DHT22;37652;50.400;30.628;2023-03-20T06:05:51;3.30;76.80
36214;DHT22;37652;50.400;30.628;2023-03-20T06:07:52;3.50;76.60
36214;DHT22;37652;50.400;30.628;2023-03-20T06:09:52;3.30;77.50
36214;DHT22;37652;50.400;30.628;2023-03-20T06:11:53;5.00;78.40
36214;DHT22;37652;50.400;30.628;2023-03-20T06:13:54;3.80;75.60
36214;DHT22;37652;50.400;30.628;2023-03-20T06:17:58;3.80;76.50
36214;DHT22;37652;50.400;30.628;2023-03-20T06:19:59;4.10;74.70
36214;DHT22;37652;50.400;30.628;2023-03-20T06:22:00;4.20;74.70
36214;DHT22;37652;50.400;30.628;2023-03-20T06:24:01;4.20;75.90
36214;DHT22;37652;50.400;30.628;2023-03-20T06:26:02;4.30;74.10
36214;DHT22;37652;50.400;30.628;2023-03-20T06:28:03;4.30;73.80
36214;DHT22;37652;50.400;30.628;2023-03-20T06:30:05;4.00;75.00
36214;DHT22;37652;50.400;30.628;2023-03-20T06:32:06;4.40;73.70
36214;DHT22;37652;50.400;30.628;2023-03-20T06:34:08;4.50;73.40
36214;DHT22;37652;50.400;30.628;2023-03-20T06:36:09;4.70;73.00
36214;DHT22;37652;50.400;30.628;2023-03-20T06:38:09;5.20;74.40
36214;DHT22;37652;50.400;30.628;2023-03-20T06:40:10;5.10;74.10
36214;DHT22;37652;50.400;30.628;2023-03-20T06:42:11;5.60;74.10
36214;DHT22;37652;50.400;30.628;2023-03-20T06:44:12;4.90;72.90
36214;DHT22;37652;50.400;30.628;2023-03-20T06:46:13;5.30;75.90
36214;DHT22;37652;50.400;30.628;2023-03-20T06:50:21;4.90;75.60
36214;DHT22;37652;50.400;30.628;2023-03-20T06:54:25;6.00;74.80
36214;DHT22;37652;50.400;30.628;2023-03-20T06:56:25;5.60;74.40
36214;DHT22;37652;50.400;30.628;2023-03-20T07:00:27;5.60;70.80
36214;DHT22;37652;50.400;30.628;2023-03-20T07:02:29;5.50;70.80
36214;DHT22;37652;50.400;30.628;2023-03-20T07:04:30;6.00;70.60
36214;DHT22;37652;50.400;30.628;2023-03-20T07:06:31;5.80;70.00
36214;DHT22;37652;50.400;30.628;2023-03-20T07:08:33;6.50;70.60
36214;DHT22;37652;50.400;30.628;2023-03-20T07:10:34;6.50;67.90
36214;DHT22;37652;50.400;30.628;2023-03-20T07:12:35;6.30;69.10
36214;DHT22;37652;50.400;30.628;2023-03-20T07:14:36;6.90;67.60
36214;DHT22;37652;50.400;30.628;2023-03-20T07:16:36;7.00;68.00
36214;DHT22;37652;50.400;30.628;2023-03-20T07:18:37;6.70;65.60
36214;DHT22;37652;50.400;30.628;2023-03-20T07:20:37;7.10;65.40
36214;DHT22;37652;50.400;30.628;2023-03-20T07:22:39;7.40;65.80
36214;DHT22;37652;50.400;30.628;2023-03-20T07:24:41;7.10;64.10
36214;DHT22;37652;50.400;30.628;2023-03-20T07:28:42;7.60;61.30
36214;DHT22;37652;50.400;30.628;2023-03-20T07:30:43;8.40;63.20
36214;DHT22;37652;50.400;30.628;2023-03-20T07:32:44;7.90;62.90
36214;DHT22;37652;50.400;30.628;2023-03-20T07:34:45;7.60;62.90
36214;DHT22;37652;50.400;30.628;2023-03-20T07:36:46;8.50;64.50
36214;DHT22;37652;50.400;30.628;2023-03-20T07:38:47;8.00;64.90
36214;DHT22;37652;50.400;30.628;2023-03-20T07:40:48;8.00;61.00
36214;DHT22;37652;50.400;30.628;2023-03-20T07:42:49;8.20;60.90
36214;DHT22;37652;50.400;30.628;2023-03-20T07:44:50;8.30;60.60
36214;DHT22;37652;50.400;30.628;2023-03-20T07:46:51;8.50;59.80
36214;DHT22;37652;50.400;30.628;2023-03-20T07:48:51;8.70;59.20
36214;DHT22;37652;50.400;30.628;2023-03-20T07:50:52;8.70;59.00
36214;DHT22;37652;50.400;30.628;2023-03-20T07:52:53;8.40;59.70
36214;DHT22;37652;50.400;30.628;2023-03-20T07:54:53;8.40;60.30
36214;DHT22;37652;50.400;30.628;2023-03-20T07:56:54;8.50;60.40
36214;DHT22;37652;50.400;30.628;2023-03-20T07:58:55;8.70;60.40
36214;DHT22;37652;50.400;30.628;2023-03-20T08:00:56;8.80;61.30
36214;DHT22;37652;50.400;30.628;2023-03-20T08:02:58;9.10;59.90
36214;DHT22;37652;50.400;30.628;2023-03-20T08:04:59;9.10;59.40
36214;DHT22;37652;50.400;30.628;2023-03-20T08:06:59;9.40;60.90
36214;DHT22;37652;50.400;30.628;2023-03-20T08:09:00;9.20;59.50
36214;DHT22;37652;50.400;30.628;2023-03-20T08:11:01;9.30;58.80
36214;DHT22;37652;50.400;30.628;2023-03-20T08:13:02;9.60;59.70
36214;DHT22;37652;50.400;30.628;2023-03-20T08:15:03;9.90;59.10
36214;DHT22;37652;50.400;30.628;2023-03-20T08:17:04;10.40;59.30
36214;DHT22;37652;50.400;30.628;2023-03-20T08:19:04;10.00;58.00
36214;DHT22;37652;50.400;30.628;2023-03-20T08:21:06;10.20;56.80
36214;DHT22;37652;50.400;30.628;2023-03-20T08:23:06;10.10;56.50
36214;DHT22;37652;50.400;30.628;2023-03-20T08:25:08;10.30;55.90
36214;DHT22;37652;50.400;30.628;2023-03-20T08:27:08;10.60;54.40
36214;DHT22;37652;50.400;30.628;2023-03-20T08:31:11;11.30;53.40
36214;DHT22;37652;50.400;30.628;2023-03-20T08:33:13;11.40;53.50
36214;DHT22;37652;50.400;30.628;2023-03-20T08:35:14;11.10;53.90
36214;DHT22;37652;50.400;30.628;2023-03-20T08:37:15;11.80;49.70
36214;DHT22;37652;50.400;30.628;2023-03-20T08:39:16;11.00;53.60
36214;DHT22;37652;50.400;30.628;2023-03-20T08:41:17;11.30;53.60
36214;DHT22;37652;50.400;30.628;2023-03-20T08:43:18;10.80;50.70
36214;DHT22;37652;50.400;30.628;2023-03-20T08:45:18;12.10;49.00
36214;DHT22;37652;50.400;30.628;2023-03-20T08:47:19;12.10;49.10
36214;DHT22;37652;50.400;30.628;2023-03-20T08:49:20;13.10;47.10
36214;DHT22;37652;50.400;30.628;2023-03-20T08:51:21;13.40;46.20
36214;DHT22;37652;50.400;30.628;2023-03-20T08:53:22;14.10;44.70
36214;DHT22;37652;50.400;30.628;2023-03-20T08:55:22;15.50;42.70
36214;DHT22;37652;50.400;30.628;2023-03-20T08:57:23;16.80;40.00
36214;DHT22;37652;50.400;30.628;2023-03-20T08:59:24;17.30;38.40
36214;DHT22;37652;50.400;30.628;2023-03-20T09:01:25;18.20;37.20
36214;DHT22;37652;50.400;30.628;2023-03-20T09:03:26;18.60;35.50
36214;DHT22;37652;50.400;30.628;2023-03-20T09:05:26;18.90;34.20
36214;DHT22;37652;50.400;30.628;2023-03-20T09:07:27;19.30;33.40
36214;DHT22;37652;50.400;30.628;2023-03-20T09:09:28;19.60;32.20
36214;DHT22;37652;50.400;30.628;2023-03-20T09:11:30;19.30;31.90
36214;DHT22;37652;50.400;30.628;2023-03-20T09:13:31;19.40;32.50
36214;DHT22;37652;50.400;30.628;2023-03-20T09:15:33;19.70;31.10
36214;DHT22;37652;50.400;30.628;2023-03-20T09:17:34;20.30;30.30
36214;DHT22;37652;50.400;30.628;2023-03-20T09:21:38;20.90;29.90
36214;DHT22;37652;50.400;30.628;2023-03-20T09:23:39;21.30;29.70
36214;DHT22;37652;50.400;30.628;2023-03-20T09:25:40;21.40;29.90
36214;DHT22;37652;50.400;30.628;2023-03-20T09:27:40;22.60;28.50
36214;DHT22;37652;50.400;30.628;2023-03-20T09:29:42;22.40;28.90
36214;DHT22;37652;50.400;30.628;2023-03-20T09:31:43;22.50;29.20
36214;DHT22;37652;50.400;30.628;2023-03-20T09:33:43;22.80;28.10
36214;DHT22;37652;50.400;30.628;2023-03-20T09:35:44;22.70;28.50
36214;DHT22;37652;50.400;30.628;2023-03-20T09:37:45;23.00;28.30
36214;DHT22;37652;50.400;30.628;2023-03-20T09:39:46;23.10;28.50
36214;DHT22;37652;50.400;30.628;2023-03-20T09:41:47;23.20;28.10
36214;DHT22;37652;50.400;30.628;2023-03-20T09:48:39;22.90;28.10
36214;DHT22;37652;50.400;30.628;2023-03-20T09:55:21;24.00;27.60
36214;DHT22;37652;50.400;30.628;2023-03-20T09:57:26;23.30;27.70
36214;DHT22;37652;50.400;30.628;2023-03-20T09:59:29;23.20;27.80
36214;DHT22;37652;50.400;30.628;2023-03-20T10:01:39;23.00;28.10
36214;DHT22;37652;50.400;30.628;2023-03-20T10:04:03;22.80;28.20
36214;DHT22;37652;50.400;30.628;2023-03-20T10:06:15;22.80;28.00
36214;DHT22;37652;50.400;30.628;2023-03-20T10:08:17;22.10;28.20
36214;DHT22;37652;50.400;30.628;2023-03-20T10:13:09;20.30;29.20
36214;DHT22;37652;50.400;30.628;2023-03-20T10:15:44;20.10;29.80
36214;DHT22;37652;50.400;30.628;2023-03-20T10:18:08;21.20;29.30
36214;DHT22;37652;50.400;30.628;2023-03-20T10:20:18;21.20;29.50
36214;DHT22;37652;50.400;30.628;2023-03-20T10:26:41;21.70;29.40
36214;DHT22;37652;50.400;30.628;2023-03-20T10:35:18;21.50;29.50
36214;DHT22;37652;50.400;30.628;2023-03-20T10:41:59;20.40;31.00
36214;DHT22;37652;50.400;30.628;2023-03-20T10:44:02;20.70;31.30
36214;DHT22;37652;50.400;30.628;2023-03-20T10:46:21;20.70;31.00
36214;DHT22;37652;50.400;30.628;2023-03-20T10:48:40;20.70;31.30
36214;DHT22;37652;50.400;30.628;2023-03-20T10:50:45;21.20;31.00
36214;DHT22;37652;50.400;30.628;2023-03-20T10:52:48;20.90;30.90
36214;DHT22;37652;50.400;30.628;2023-03-20T10:55:07;20.90;31.20
36214;DHT22;37652;50.400;30.628;2023-03-20T10:57:30;19.90;31.90
36214;DHT22;37652;50.400;30.628;2023-03-20T10:59:37;19.70;32.40
36214;DHT22;37652;50.400;30.628;2023-03-20T11:01:39;19.90;32.50
36214;DHT22;37652;50.400;30.628;2023-03-20T11:03:40;19.90;32.80
36214;DHT22;37652;50.400;30.628;2023-03-20T11:05:41;20.20;31.80
36214;DHT22;37652;50.400;30.628;2023-03-20T11:07:43;20.20;31.50
36214;DHT22;37652;50.400;30.628;2023-03-20T11:12:20;20.60;31.60
36214;DHT22;37652;50.400;30.628;2023-03-20T11:14:24;20.00;32.40
36214;DHT22;37652;50.400;30.628;2023-03-20T11:16:30;20.00;32.40
36214;DHT22;37652;50.400;30.628;2023-03-20T11:18:33;20.20;32.40
36214;DHT22;37652;50.400;30.628;2023-03-20T11:20:50;20.70;32.00
36214;DHT22;37652;50.400;30.628;2023-03-20T11:22:57;19.90;32.50
36214;DHT22;37652;50.400;30.628;2023-03-20T11:25:00;19.50;33.00
36214;DHT22;37652;50.400;30.628;2023-03-20T11:27:14;19.00;33.80
36214;DHT22;37652;50.400;30.628;2023-03-20T11:29:29;18.50;34.50
36214;DHT22;37652;50.400;30.628;2023-03-20T11:31:36;18.60;35.40
36214;DHT22;37652;50.400;30.628;2023-03-20T11:33:41;18.00;34.70
36214;DHT22;37652;50.400;30.628;2023-03-20T11:35:46;18.80;34.30
36214;DHT22;37652;50.400;30.628;2023-03-20T11:37:49;19.90;33.10
36214;DHT22;37652;50.400;30.628;2023-03-20T11:40:14;19.70;33.30
36214;DHT22;37652;50.400;30.628;2023-03-20T11:42:26;20.50;32.30
36214;DHT22;37652;50.400;30.628;2023-03-20T11:44:35;19.60;32.50
36214;DHT22;37652;50.400;30.628;2023-03-20T11:46:36;19.60;33.60
36214;DHT22;37652;50.400;30.628;2023-03-20T11:48:39;19.40;33.90
36214;DHT22;37652;50.400;30.628;2023-03-20T11:50:46;19.00;33.90
36214;DHT22;37652;50.400;30.628;2023-03-20T11:52:48;19.00;34.40
36214;DHT22;37652;50.400;30.628;2023-03-20T11:54:53;19.20;33.70
36214;DHT22;37652;50.400;30.628;2023-03-20T11:56:56;18.80;34.00
36214;DHT22;37652;50.400;30.628;2023-03-20T12:01:02;18.30;34.80
36214;DHT22;37652;50.400;30.628;2023-03-20T12:03:05;18.30;35.50
36214;DHT22;37652;50.400;30.628;2023-03-20T12:05:35;18.10;35.00
36214;DHT22;37652;50.400;30.628;2023-03-20T12:07:37;18.30;34.40
36214;DHT22;37652;50.400;30.628;2023-03-20T12:09:43;19.10;34.40
36214;DHT22;37652;50.400;30.628;2023-03-20T12:11:49;19.00;34.20
36214;DHT22;37652;50.400;30.628;2023-03-20T12:13:52;19.30;34.20
36214;DHT22;37652;50.400;30.628;2023-03-20T12:16:06;19.40;33.30
36214;DHT22;37652;50.400;30.628;2023-03-20T12:20:45;18.40;34.50
36214;DHT22;37652;50.400;30.628;2023-03-20T12:27:33;17.60;36.10
36214;DHT22;37652;50.400;30.628;2023-03-20T12:29:46;17.60;36.00
36214;DHT22;37652;50.400;30.628;2023-03-20T12:31:53;17.30;36.10
36214;DHT22;37652;50.400;30.628;2023-03-20T12:34:03;17.30;36.60
36214;DHT22;37652;50.400;30.628;2023-03-20T12:36:12;17.40;36.60
36214;DHT22;37652;50.400;30.628;2023-03-20T12:38:22;17.20;37.00
36214;DHT22;37652;50.400;30.628;2023-03-20T12:40:52;17.10;37.10
36214;DHT22;37652;50.400;30.628;2023-03-20T12:43:14;17.20;37.40
36214;DHT22;37652;50.400;30.628;2023-03-20T12:45:52;17.30;36.80
36214;DHT22;37652;50.400;30.628;2023-03-20T12:50:32;17.10;37.10
36214;DHT22;37652;50.400;30.628;2023-03-20T12:55:24;17.30;37.10
36214;DHT22;37652;50.400;30.628;2023-03-20T13:02:33;16.60;37.90
36214;DHT22;37652;50.400;30.628;2023-03-20T13:06:53;17.20;37.40
36214;DHT22;37652;50.400;30.628;2023-03-20T13:09:05;16.80;37.70
36214;DHT22;37652;50.400;30.628;2023-03-20T13:16:28;16.80;37.60
36214;DHT22;37652;50.400;30.628;2023-03-20T13:20:59;16.90;37.40
36214;DHT22;37652;50.400;30.628;2023-03-20T13:23:40;16.50;38.00
36214;DHT22;37652;50.400;30.628;2023-03-20T13:31:14;17.60;36.30
36214;DHT22;37652;50.400;30.628;2023-03-20T13:35:51;16.30;38.00
36214;DHT22;37652;50.400;30.628;2023-03-20T13:37:53;16.30;40.40
36214;DHT22;37652;50.400;30.628;2023-03-20T13:40:11;15.70;38.90
36214;DHT22;37652;50.400;30.628;2023-03-20T13:42:21;15.40;39.90
36214;DHT22;37652;50.400;30.628;2023-03-20T13:44:24;15.10;40.00
36214;DHT22;37652;50.400;30.628;2023-03-20T13:46:33;15.00;40.30
36214;DHT22;37652;50.400;30.628;2023-03-20T13:48:38;14.80;40.40
36214;DHT22;37652;50.400;30.628;2023-03-20T13:50:48;14.80;40.50
36214;DHT22;37652;50.400;30.628;2023-03-20T13:52:59;14.90;40.40
36214;DHT22;37652;50.400;30.628;2023-03-20T14:04:23;14.50;41.30
36214;DHT22;37652;50.400;30.628;2023-03-20T14:08:33;13.60;43.60
36214;DHT22;37652;50.400;30.628;2023-03-20T14:10:37;13.20;44.60
36214;DHT22;37652;50.400;30.628;2023-03-20T14:12:38;12.70;45.60
36214;DHT22;37652;50.400;30.628;2023-03-20T14:14:59;12.80;45.90
36214;DHT22;37652;50.400;30.628;2023-03-20T14:21:12;12.90;46.60
36214;DHT22;37652;50.400;30.628;2023-03-20T14:23:17;13.00;46.50
36214;DHT22;37652;50.400;30.628;2023-03-20T14:25:21;13.20;45.60
36214;DHT22;37652;50.400;30.628;2023-03-20T14:27:26;13.10;46.00
36214;DHT22;37652;50.400;30.628;2023-03-20T14:31:31;13.10;46.60
36214;DHT22;37652;50.400;30.628;2023-03-20T14:33:42;13.20;46.40
36214;DHT22;37652;50.400;30.628;2023-03-20T14:36:11;13.20;45.90
36214;DHT22;37652;50.400;30.628;2023-03-20T14:40:22;13.00;46.70
36214;DHT22;37652;50.400;30.628;2023-03-20T14:44:53;12.40;48.10
36214;DHT22;37652;50.400;30.628;2023-03-20T14:47:25;12.10;48.60
36214;DHT22;37652;50.400;30.628;2023-03-20T14:49:49;11.80;49.20
36214;DHT22;37652;50.400;30.628;2023-03-20T14:51:57;11.60;49.50
36214;DHT22;37652;50.400;30.628;2023-03-20T14:54:26;11.50;50.10
36214;DHT22;37652;50.400;30.628;2023-03-20T14:56:30;11.20;50.40
36214;DHT22;37652;50.400;30.628;2023-03-20T14:58:48;11.20;50.90
36214;DHT22;37652;50.400;30.628;2023-03-20T15:00:49;11.10;50.90
36214;DHT22;37652;50.400;30.628;2023-03-20T15:04:58;11.10;51.40
36214;DHT22;37652;50.400;30.628;2023-03-20T15:09:26;11.00;51.70
36214;DHT22;37652;50.400;30.628;2023-03-20T15:11:28;11.00;51.50
36214;DHT22;37652;50.400;30.628;2023-03-20T15:15:31;10.80;51.50
36214;DHT22;37652;50.400;30.628;2023-03-20T15:17:40;10.40;52.00
36214;DHT22;37652;50.400;30.628;2023-03-20T15:19:43;10.60;52.40
36214;DHT22;37652;50.400;30.628;2023-03-20T15:21:45;10.50;52.10
36214;DHT22;37652;50.400;30.628;2023-03-20T15:25:49;10.50;52.40
36214;DHT22;37652;50.400;30.628;2023-03-20T15:27:50;10.40;53.20
36214;DHT22;37652;50.400;30.628;2023-03-20T15:29:53;10.40;53.20
36214;DHT22;37652;50.400;30.628;2023-03-20T15:31:57;10.30;53.50
36214;DHT22;37652;50.400;30.628;2023-03-20T15:33:59;10.30;53.10
36214;DHT22;37652;50.400;30.628;2023-03-20T15:36:09;10.20;53.40
36214;DHT22;37652;50.400;30.628;2023-03-20T15:38:14;10.20;53.60
36214;DHT22;37652;50.400;30.628;2023-03-20T15:40:30;12.20;55.00
36214;DHT22;37652;50.400;30.628;2023-03-20T15:42:31;10.10;53.60
36214;DHT22;37652;50.400;30.628;2023-03-20T15:44:39;10.00;53.80
36214;DHT22;37652;50.400;30.628;2023-03-20T15:47:34;10.10;54.20
36214;DHT22;37652;50.400;30.628;2023-03-20T15:49:16;10.00;54.50
36214;DHT22;37652;50.400;30.628;2023-03-20T15:51:19;9.90;54.80
36214;DHT22;37652;50.400;30.628;2023-03-20T15:53:32;9.80;55.00
36214;DHT22;37652;50.400;30.628;2023-03-20T15:55:34;9.70;55.40
36214;DHT22;37652;50.400;30.628;2023-03-20T15:57:37;9.50;55.60
36214;DHT22;37652;50.400;30.628;2023-03-20T15:59:39;9.60;56.10
36214;DHT22;37652;50.400;30.628;2023-03-20T16:01:41;9.50;56.30
36214;DHT22;37652;50.400;30.628;2023-03-20T16:03:43;9.40;56.80
36214;DHT22;37652;50.400;30.628;2023-03-20T16:05:49;9.40;57.10
36214;DHT22;37652;50.400;30.628;2023-03-20T16:07:50;9.30;57.50